createdAt,value
2019-04-21T00:00:31.841Z,13.37
2019-04-21T00:02:59.608Z,14.90
2019-04-21T00:05:47.350Z,14.40
2019-04-21T00:08:24.914Z,16.33
2019-04-21T00:10:51.635Z,11.63
2019-04-21T00:13:08.044Z,12.23
2019-04-21T00:15:29.990Z,17.73
2019-04-21T00:17:58.418Z,14.13
2019-04-21T00:20:37.578Z,13.47
2019-04-21T00:23:13.125Z,19.20
2019-04-21T00:25:38.828Z,17.47
2019-04-21T00:28:14.048Z,13.60
2019-04-21T00:30:44.344Z,12.30
2019-04-21T00:32:59.989Z,11.77
2019-04-21T00:35:24.014Z,14.07
2019-04-21T00:38:08.259Z,13.77
2019-04-21T00:40:34.670Z,13.17
2019-04-21T00:43:04.637Z,15.80
2019-04-21T00:45:29.053Z,15.23
2019-04-21T00:48:04.027Z,17.20
2019-04-21T00:50:41.971Z,13.77
2019-04-21T00:53:22.198Z,14.13
2019-04-21T00:55:48.621Z,15.63
2019-04-21T00:58:23.655Z,12.20
2019-04-21T01:00:54.153Z,14.20
2019-04-21T01:03:21.703Z,12.20
2019-04-21T01:05:49.695Z,15.30
2019-04-21T01:08:16.089Z,14.30
2019-04-21T01:10:32.021Z,13.97
2019-04-21T01:13:18.831Z,15.30
2019-04-21T01:15:44.250Z,13.50
2019-04-21T01:18:07.721Z,13.30
2019-04-21T01:20:17.502Z,13.63
2019-04-21T01:22:43.293Z,13.37
2019-04-21T01:25:20.160Z,12.13
2019-04-21T01:27:53.704Z,14.60
2019-04-21T01:30:28.569Z,13.13
2019-04-21T01:32:59.557Z,10.43
2019-04-21T01:35:25.664Z,14.87
2019-04-21T01:37:57.754Z,15.70
2019-04-21T01:40:29.753Z,14.47
2019-04-21T01:42:56.716Z,14.40
2019-04-21T01:45:27.945Z,14.57
2019-04-21T01:47:53.653Z,13.50
2019-04-21T01:50:23.733Z,15.73
2019-04-21T01:52:57.498Z,13.97
2019-04-21T01:55:28.903Z,13.63
2019-04-21T01:57:57.597Z,12.83
2019-04-21T02:00:39.016Z,14.07
2019-04-21T02:03:37.567Z,12.60
2019-04-21T02:05:53.217Z,13.40
2019-04-21T02:08:20.387Z,14.03
2019-04-21T02:10:49.803Z,13.97
2019-04-21T02:13:14.453Z,12.50
2019-04-21T02:16:00.847Z,13.40
2019-04-21T02:18:12.061Z,16.63
2019-04-21T02:20:34.492Z,17.63
2019-04-21T02:23:22.323Z,17.27
2019-04-21T02:25:38.524Z,14.67
2019-04-21T02:28:13.047Z,14.10
2019-04-21T02:30:49.274Z,14.73
2019-04-21T02:33:19.576Z,17.00
2019-04-21T02:38:11.372Z,15.80
2019-04-21T02:43:16.647Z,14.53
2019-04-21T02:45:41.043Z,14.43
2019-04-21T02:53:16.371Z,12.77
2019-04-21T02:55:36.715Z,14.90
2019-04-21T02:58:17.857Z,15.27
2019-04-21T03:00:59.711Z,12.20
2019-04-21T03:03:28.503Z,13.83
2019-04-21T03:06:03.986Z,13.90
2019-04-21T03:11:12.249Z,14.53
2019-04-21T03:21:19.078Z,16.63
2019-04-21T03:23:54.129Z,17.80
2019-04-21T03:26:22.489Z,18.93
2019-04-21T03:28:35.648Z,15.03
2019-04-21T03:40:57.234Z,17.37
2019-04-21T03:48:41.091Z,16.83
2019-04-21T03:51:16.043Z,18.40
2019-04-21T03:53:43.770Z,16.67
2019-04-21T03:56:16.028Z,17.70
2019-04-21T03:58:47.414Z,18.02
2019-04-21T04:01:08.177Z,16.42
2019-04-21T04:04:12.195Z,15.32
2019-04-21T04:06:34.392Z,18.10
2019-04-21T04:09:27.260Z,17.37
2019-04-21T04:11:56.488Z,15.85
2019-04-21T04:14:31.036Z,16.48
2019-04-21T04:16:50.160Z,19.25
2019-04-21T04:19:05.483Z,18.15
2019-04-21T04:24:04.661Z,17.27
2019-04-21T04:29:12.469Z,20.12
2019-04-21T04:34:05.032Z,21.23
2019-04-21T04:39:25.788Z,19.45
2019-04-21T04:42:04.902Z,22.37
2019-04-21T04:44:43.770Z,20.57
2019-04-21T04:49:40.512Z,22.73
2019-04-21T05:07:27.326Z,20.75
2019-04-21T05:12:17.578Z,19.37
2019-04-21T05:14:46.645Z,18.47
2019-04-21T05:17:25.157Z,20.40
2019-04-21T05:19:53.982Z,24.27
2019-04-21T05:22:11.025Z,20.23
2019-04-21T05:24:30.359Z,19.40
2019-04-21T05:26:53.572Z,17.73
2019-04-21T05:29:24.759Z,18.25
2019-04-21T05:32:09.192Z,23.83
2019-04-21T05:34:52.266Z,17.97
2019-04-21T05:37:20.073Z,18.20
2019-04-21T05:39:51.040Z,19.37
2019-04-21T05:42:07.740Z,20.17
2019-04-21T05:47:24.988Z,23.47
2019-04-21T05:49:46.629Z,18.00
2019-04-21T05:52:13.247Z,18.50
2019-04-21T05:54:52.978Z,20.10
2019-04-21T05:57:13.329Z,16.67
2019-04-21T05:59:43.565Z,17.70
2019-04-21T06:02:19.155Z,17.10
2019-04-21T06:05:02.623Z,16.40
2019-04-21T06:07:28.725Z,20.63
2019-04-21T06:09:59.476Z,18.83
2019-04-21T06:12:31.557Z,18.80
2019-04-21T06:14:54.157Z,15.73
2019-04-21T06:17:29.886Z,13.90
2019-04-21T06:19:58.989Z,14.23
2019-04-21T06:22:21.242Z,15.50
2019-04-21T06:25:16.195Z,16.50
2019-04-21T06:27:26.299Z,17.93
2019-04-21T06:29:44.145Z,14.77
2019-04-21T06:32:37.433Z,14.83
2019-04-21T06:35:00.224Z,17.57
2019-04-21T06:37:35.980Z,16.83
2019-04-21T06:42:09.652Z,14.60
2019-04-21T06:44:48.536Z,15.70
2019-04-21T06:47:15.529Z,16.53
2019-04-21T06:49:30.228Z,15.57
2019-04-21T06:52:18.104Z,15.47
2019-04-21T06:54:34.163Z,18.67
2019-04-21T06:57:00.474Z,15.00
2019-04-21T06:59:30.077Z,17.83
2019-04-21T07:02:19.379Z,18.43
2019-04-21T07:04:29.556Z,14.90
2019-04-21T07:06:53.673Z,15.83
2019-04-21T07:09:31.862Z,20.87
2019-04-21T07:12:13.849Z,15.37
2019-04-21T07:14:59.484Z,15.33
2019-04-21T07:17:19.356Z,20.77
2019-04-21T07:19:48.417Z,12.90
2019-04-21T07:22:14.571Z,24.40
2019-04-21T07:24:37.369Z,17.80
2019-04-21T07:27:11.611Z,16.97
2019-04-21T07:29:42.393Z,15.70
2019-04-21T07:32:19.121Z,15.30
2019-04-21T07:34:33.432Z,17.30
2019-04-21T07:37:01.995Z,16.87
2019-04-21T07:39:29.951Z,15.03
2019-04-21T07:41:54.064Z,18.07
2019-04-21T07:44:25.754Z,14.77
2019-04-21T07:46:44.088Z,19.53
2019-04-21T07:49:50.124Z,14.57
2019-04-21T07:52:22.202Z,17.13
2019-04-21T07:55:01.634Z,16.00
2019-04-21T07:57:12.677Z,14.50
2019-04-21T07:59:56.230Z,13.43
2019-04-21T08:02:17.106Z,16.30
2019-04-21T08:04:52.779Z,15.03
2019-04-21T08:07:12.851Z,13.07
2019-04-21T08:09:44.000Z,15.17
2019-04-21T08:12:06.659Z,14.77
2019-04-21T08:14:35.298Z,13.73
2019-04-21T08:17:04.873Z,17.50
2019-04-21T08:19:32.162Z,16.90
2019-04-21T08:22:06.440Z,12.67
2019-04-21T08:24:30.610Z,13.03
2019-04-21T08:27:05.309Z,13.00
2019-04-21T08:29:33.415Z,13.83
2019-04-21T08:32:03.128Z,13.03
2019-04-21T08:34:28.379Z,14.00
2019-04-21T08:36:51.675Z,14.23
2019-04-21T08:39:31.274Z,10.93
2019-04-21T08:41:55.962Z,13.27
2019-04-21T08:44:33.819Z,11.23
2019-04-21T08:46:58.910Z,13.33
2019-04-21T08:49:20.656Z,12.83
2019-04-21T08:52:01.746Z,10.73
2019-04-21T08:54:23.499Z,11.13
2019-04-21T08:56:55.837Z,11.07
2019-04-21T08:59:33.963Z,11.90
2019-04-21T09:02:02.952Z,12.20
2019-04-21T09:04:46.560Z,12.83
2019-04-21T09:07:20.030Z,12.07
2019-04-21T09:09:29.172Z,12.40
2019-04-21T09:11:59.656Z,11.37
2019-04-21T09:14:30.915Z,14.47
2019-04-21T09:16:54.458Z,11.40
2019-04-21T09:19:33.994Z,10.87
2019-04-21T09:21:59.462Z,10.33
2019-04-21T09:24:24.740Z,9.43
2019-04-21T09:26:46.574Z,9.67
2019-04-21T09:29:13.707Z,10.00
2019-04-21T09:31:33.795Z,10.57
2019-04-21T09:33:59.360Z,11.63
2019-04-21T09:36:33.978Z,10.10
2019-04-21T09:39:01.185Z,10.67
2019-04-21T09:41:24.195Z,10.87
2019-04-21T09:43:55.694Z,11.30
2019-04-21T09:46:20.945Z,10.50
2019-04-21T09:48:55.674Z,10.67
2019-04-21T09:51:16.087Z,10.10
2019-04-21T09:53:48.455Z,10.37
2019-04-21T09:56:16.089Z,11.97
2019-04-21T09:58:44.441Z,9.93
2019-04-21T10:01:18.104Z,10.67
2019-04-21T10:03:45.450Z,11.03
2019-04-21T10:06:06.585Z,8.90
2019-04-21T10:08:34.157Z,10.90
2019-04-21T10:11:01.019Z,14.33
2019-04-21T10:13:27.667Z,11.33
2019-04-21T10:16:05.222Z,8.87
2019-04-21T10:18:32.088Z,12.23
2019-04-21T10:20:59.026Z,9.30
2019-04-21T10:23:25.560Z,9.00
2019-04-21T10:25:52.544Z,9.83
2019-04-21T10:28:19.142Z,10.50
2019-04-21T10:30:46.858Z,10.13
2019-04-21T10:33:16.671Z,8.63
2019-04-21T10:35:43.420Z,8.53
2019-04-21T10:38:20.320Z,8.73
2019-04-21T10:40:39.258Z,8.10
2019-04-21T10:43:11.616Z,8.73
2019-04-21T10:45:37.011Z,10.20
2019-04-21T10:48:05.151Z,7.80
2019-04-21T10:50:31.690Z,6.67
2019-04-21T10:53:18.870Z,7.23
2019-04-21T10:56:01.491Z,8.20
2019-04-21T10:58:16.593Z,6.57
2019-04-21T11:00:46.151Z,12.37
2019-04-21T11:03:31.043Z,7.83
2019-04-21T11:06:00.929Z,8.80
2019-04-21T11:08:33.713Z,7.03
2019-04-21T11:10:56.149Z,7.80
2019-04-21T11:13:23.008Z,6.17
2019-04-21T11:15:50.790Z,6.53
2019-04-21T11:18:17.899Z,5.70
2019-04-21T11:20:44.774Z,7.70
2019-04-21T11:23:12.129Z,5.70
2019-04-21T11:25:39.968Z,8.20
2019-04-21T11:28:07.064Z,5.50
2019-04-21T11:30:37.997Z,6.70
2019-04-21T11:33:04.939Z,5.60
2019-04-21T11:35:32.974Z,6.17
2019-04-21T11:38:08.419Z,5.60
2019-04-21T11:40:31.773Z,7.50
2019-04-21T11:42:59.940Z,8.30
2019-04-21T11:45:40.051Z,6.03
2019-04-21T11:48:18.547Z,7.10
2019-04-21T11:50:46.655Z,5.90
2019-04-21T11:53:15.312Z,6.17
2019-04-21T11:55:46.375Z,5.37
2019-04-21T11:58:10.327Z,6.73
2019-04-21T12:00:37.748Z,7.30
2019-04-21T12:03:05.777Z,5.90
2019-04-21T12:05:33.034Z,6.80
2019-04-21T12:08:00.181Z,6.40
2019-04-21T12:10:27.147Z,6.90
2019-04-21T12:12:55.093Z,7.83
2019-04-21T12:15:22.913Z,10.20
2019-04-21T12:17:50.130Z,7.37
2019-04-21T12:20:17.144Z,6.50
2019-04-21T12:22:43.690Z,6.10
2019-04-21T12:25:13.316Z,7.77
2019-04-21T12:27:40.316Z,6.00
2019-04-21T12:30:09.600Z,7.43
2019-04-21T12:32:38.146Z,8.50
2019-04-21T12:35:06.129Z,7.60
2019-04-21T12:37:33.104Z,7.03
2019-04-21T12:40:00.573Z,6.43
2019-04-21T12:42:27.457Z,5.97
2019-04-21T12:44:55.129Z,6.50
2019-04-21T12:47:21.828Z,7.20
2019-04-21T12:49:49.843Z,6.47
2019-04-21T12:52:17.623Z,7.47
2019-04-21T12:54:45.777Z,6.87
2019-04-21T12:57:13.703Z,8.07
2019-04-21T12:59:40.479Z,9.30
2019-04-21T13:02:07.506Z,7.27
2019-04-21T13:04:35.695Z,5.93
2019-04-21T13:07:03.559Z,7.17
2019-04-21T13:09:32.038Z,6.20
2019-04-21T13:11:59.453Z,6.27
2019-04-21T13:14:26.227Z,6.00
2019-04-21T13:16:52.731Z,6.43
2019-04-21T13:19:19.258Z,5.67
2019-04-21T13:21:45.958Z,10.90
2019-04-21T13:24:13.611Z,6.60
2019-04-21T13:26:47.214Z,6.83
2019-04-21T13:29:10.149Z,7.13
2019-04-21T13:31:38.305Z,7.10
2019-04-21T13:34:06.040Z,12.00
2019-04-21T13:36:33.768Z,7.00
2019-04-21T13:39:32.508Z,5.47
2019-04-21T13:41:42.802Z,6.13
2019-04-21T13:44:13.279Z,6.80
2019-04-21T13:46:42.865Z,5.43
2019-04-21T13:49:11.496Z,6.77
2019-04-21T13:51:38.279Z,7.77
2019-04-21T13:54:05.412Z,6.73
2019-04-21T13:56:32.343Z,10.50
2019-04-21T13:59:00.028Z,9.30
2019-04-21T14:01:27.625Z,5.40
2019-04-21T14:03:55.495Z,6.50
2019-04-21T14:06:22.560Z,4.60
2019-04-21T14:08:51.217Z,5.70
2019-04-21T14:11:19.705Z,7.67
2019-04-21T14:13:46.300Z,11.67
2019-04-21T14:16:14.039Z,5.97
2019-04-21T14:18:40.764Z,6.07
2019-04-21T14:21:07.413Z,5.67
2019-04-21T14:23:40.593Z,5.53
2019-04-21T14:26:03.885Z,4.87
2019-04-21T14:28:30.724Z,6.10
2019-04-21T14:30:58.660Z,9.93
2019-04-21T14:33:25.729Z,5.73
2019-04-21T14:35:52.693Z,5.80
2019-04-21T14:38:20.488Z,5.63
2019-04-21T14:40:48.183Z,6.23
2019-04-21T14:43:16.330Z,8.67
2019-04-21T14:45:45.238Z,5.00
2019-04-21T14:48:30.612Z,5.70
2019-04-21T14:51:06.379Z,6.77
2019-04-21T14:53:38.140Z,4.90
2019-04-21T14:56:04.863Z,6.37
2019-04-21T14:58:31.308Z,7.60
2019-04-21T15:01:01.848Z,6.10
2019-04-21T15:03:29.825Z,5.63
2019-04-21T15:05:57.727Z,5.80
2019-04-21T15:08:25.013Z,6.50
2019-04-21T15:10:52.793Z,8.50
2019-04-21T15:13:39.717Z,6.07
2019-04-21T15:16:06.910Z,6.80
2019-04-21T15:18:34.702Z,9.73
2019-04-21T15:21:01.550Z,6.80
2019-04-21T15:23:30.518Z,6.50
2019-04-21T15:25:57.179Z,6.10
2019-04-21T15:28:23.643Z,6.10
2019-04-21T15:30:50.467Z,6.20
2019-04-21T15:33:18.186Z,5.80
2019-04-21T15:35:45.017Z,8.17
2019-04-21T15:38:11.880Z,7.97
2019-04-21T15:40:46.608Z,5.73
2019-04-21T15:43:06.861Z,6.73
2019-04-21T15:45:34.876Z,5.73
2019-04-21T15:48:02.244Z,6.03
2019-04-21T15:50:30.140Z,6.90
2019-04-21T15:52:58.725Z,8.20
2019-04-21T15:55:46.531Z,9.40
2019-04-21T15:58:24.846Z,7.67
2019-04-21T16:01:08.598Z,6.97
2019-04-21T16:03:36.415Z,6.50
2019-04-21T16:06:03.608Z,7.10
2019-04-21T16:08:31.187Z,6.60
2019-04-21T16:11:01.874Z,7.70
2019-04-21T16:13:27.723Z,8.43
2019-04-21T16:15:54.573Z,11.20
2019-04-21T16:18:22.412Z,5.97
2019-04-21T16:20:49.908Z,7.20
2019-04-21T16:23:18.228Z,7.60
2019-04-21T16:25:46.312Z,6.43
2019-04-21T16:28:13.486Z,6.43
2019-04-21T16:30:40.327Z,6.90
2019-04-21T16:33:08.122Z,5.60
2019-04-21T16:35:35.706Z,7.27
2019-04-21T16:38:04.071Z,5.17
2019-04-21T16:40:41.536Z,7.80
2019-04-21T16:43:00.354Z,6.77
2019-04-21T16:45:28.644Z,5.93
2019-04-21T16:47:56.003Z,8.63
2019-04-21T16:50:25.720Z,5.57
2019-04-21T16:53:03.935Z,5.97
2019-04-21T16:55:41.565Z,8.13
2019-04-21T16:58:15.313Z,7.10
2019-04-21T17:00:46.072Z,7.73
2019-04-21T17:03:08.520Z,7.13
2019-04-21T17:05:36.273Z,10.47
2019-04-21T17:08:04.072Z,13.93
2019-04-21T17:10:30.836Z,19.50
2019-04-21T17:12:57.823Z,23.00
2019-04-21T17:15:42.089Z,12.53
2019-04-21T17:18:07.844Z,7.50
2019-04-21T17:20:35.491Z,7.03
2019-04-21T17:22:49.700Z,5.50
2019-04-21T17:25:18.132Z,5.30
2019-04-21T17:27:45.134Z,7.00
2019-04-21T17:30:14.754Z,8.83
2019-04-21T17:32:46.970Z,7.57
2019-04-21T17:35:10.276Z,10.57
2019-04-21T17:37:37.944Z,17.27
2019-04-21T17:40:08.845Z,19.33
2019-04-21T17:42:44.917Z,13.53
2019-04-21T17:45:06.771Z,14.10
2019-04-21T17:47:44.623Z,6.70
2019-04-21T17:50:09.481Z,6.30
2019-04-21T17:52:55.541Z,9.03
2019-04-21T17:55:27.690Z,11.60
2019-04-21T17:58:09.629Z,9.20
2019-04-21T18:01:09.528Z,11.53
2019-04-21T18:03:22.748Z,7.70
2019-04-21T18:05:40.979Z,7.87
2019-04-21T18:08:10.982Z,14.43
2019-04-21T18:10:34.845Z,8.63
2019-04-21T18:12:57.048Z,9.60
2019-04-21T18:15:36.343Z,11.10
2019-04-21T18:17:46.763Z,10.53
2019-04-21T18:20:15.846Z,7.90
2019-04-21T18:23:02.560Z,9.43
2019-04-21T18:25:43.330Z,10.07
2019-04-21T18:28:00.717Z,7.17
2019-04-21T18:30:46.960Z,9.10
2019-04-21T18:33:24.600Z,14.17
2019-04-21T18:35:48.102Z,6.90
2019-04-21T18:38:23.777Z,7.60
2019-04-21T18:40:47.386Z,13.87
2019-04-21T18:43:50.073Z,9.20
2019-04-21T18:46:06.938Z,9.60
2019-04-21T18:48:26.907Z,13.20
2019-04-21T18:51:00.270Z,7.40
2019-04-21T18:53:40.949Z,9.70
2019-04-21T18:56:00.327Z,7.00
2019-04-21T18:58:22.299Z,7.37
2019-04-21T19:00:51.132Z,10.37
2019-04-21T19:03:25.248Z,12.10
2019-04-21T19:05:52.058Z,8.23
2019-04-21T19:08:31.341Z,10.43
2019-04-21T19:11:02.210Z,14.47
2019-04-21T19:13:49.466Z,14.20
2019-04-21T19:16:22.862Z,13.93
2019-04-21T19:18:42.876Z,11.27
2019-04-21T19:20:58.521Z,15.10
2019-04-21T19:23:33.888Z,17.83
2019-04-21T19:25:59.369Z,8.27
2019-04-21T19:28:19.510Z,13.10
2019-04-21T19:31:00.144Z,10.53
2019-04-21T19:33:16.040Z,11.53
2019-04-21T19:35:27.710Z,10.00
2019-04-21T19:38:02.133Z,9.20
2019-04-21T19:40:40.801Z,9.83
2019-04-21T19:43:02.863Z,11.77
2019-04-21T19:45:35.462Z,9.90
2019-04-21T19:48:09.057Z,13.47
2019-04-21T19:50:41.208Z,17.07
2019-04-21T19:52:56.502Z,10.00
2019-04-21T19:55:15.996Z,9.80
2019-04-21T19:57:43.206Z,12.73
2019-04-21T20:00:11.531Z,9.90
2019-04-21T20:02:38.505Z,8.43
2019-04-21T20:05:10.775Z,8.90
2019-04-21T20:07:49.490Z,11.37
2019-04-21T20:10:27.065Z,9.90
2019-04-21T20:12:50.357Z,9.20
2019-04-21T20:15:31.314Z,9.00
2019-04-21T20:17:50.065Z,12.13
2019-04-21T20:20:05.243Z,10.67
2019-04-21T20:22:36.810Z,14.30
2019-04-21T20:25:07.765Z,10.20
2019-04-21T20:27:38.637Z,10.33
2019-04-21T20:30:17.535Z,10.03
2019-04-21T20:32:46.430Z,9.43
2019-04-21T20:35:14.962Z,11.60
2019-04-21T20:37:37.646Z,10.70
2019-04-21T20:40:00.114Z,9.50
2019-04-21T20:42:27.983Z,12.70
2019-04-21T20:45:22.077Z,14.10
2019-04-21T20:47:25.568Z,11.23
2019-04-21T20:49:59.804Z,15.03
2019-04-21T20:52:38.340Z,13.63
2019-04-21T20:54:53.916Z,13.70
2019-04-21T20:57:25.653Z,15.73
2019-04-21T20:59:52.704Z,15.80
2019-04-21T21:02:20.265Z,11.83
2019-04-21T21:04:43.404Z,12.80
2019-04-21T21:07:29.920Z,13.17
2019-04-21T21:09:52.367Z,14.40
2019-04-21T21:12:33.705Z,13.53
2019-04-21T21:14:42.209Z,13.03
2019-04-21T21:17:25.354Z,18.90
2019-04-21T21:19:47.197Z,13.20
2019-04-21T21:22:01.435Z,16.73
2019-04-21T21:24:43.339Z,16.63
2019-04-21T21:27:05.876Z,16.47
2019-04-21T21:29:33.109Z,18.90
2019-04-21T21:32:09.732Z,16.07
2019-04-21T21:34:33.126Z,18.13
2019-04-21T21:37:01.886Z,17.33
2019-04-21T21:39:36.302Z,16.03
2019-04-21T21:41:45.980Z,13.70
2019-04-21T21:44:12.710Z,17.00
2019-04-21T21:46:48.321Z,15.53
2019-04-21T21:49:22.618Z,15.07
2019-04-21T21:51:42.895Z,16.00
2019-04-21T21:54:01.114Z,20.53
2019-04-21T21:56:28.879Z,13.00
2019-04-21T21:58:56.979Z,17.47
2019-04-21T22:01:31.834Z,15.93
2019-04-21T22:03:59.114Z,18.90
2019-04-21T22:06:24.025Z,18.77
2019-04-21T22:08:50.413Z,17.77
2019-04-21T22:11:17.986Z,14.80
2019-04-21T22:13:53.305Z,15.17
2019-04-21T22:16:15.661Z,15.87
2019-04-21T22:19:04.640Z,14.30
2019-04-21T22:21:27.924Z,14.83
2019-04-21T22:23:51.630Z,13.30
2019-04-21T22:26:07.328Z,13.80
2019-04-21T22:28:34.115Z,13.93
2019-04-21T22:31:01.102Z,13.90
2019-04-21T22:33:31.312Z,15.93
2019-04-21T22:36:02.844Z,14.30
2019-04-21T22:38:38.575Z,11.80
2019-04-21T22:41:08.864Z,9.87
2019-04-21T22:43:29.217Z,11.40
2019-04-21T22:45:49.668Z,9.60
2019-04-21T22:48:20.996Z,10.47
2019-04-21T22:50:44.574Z,11.37
2019-04-21T22:53:13.756Z,10.93
2019-04-21T22:55:40.839Z,11.50
2019-04-21T22:58:07.859Z,10.80
2019-04-21T23:00:41.310Z,9.20
2019-04-21T23:03:10.634Z,10.03
2019-04-21T23:05:37.311Z,9.93
2019-04-21T23:08:03.739Z,9.50
2019-04-21T23:10:29.548Z,11.90
2019-04-21T23:12:59.556Z,11.87
2019-04-21T23:15:34.537Z,9.63
2019-04-21T23:18:14.378Z,10.77
2019-04-21T23:20:38.925Z,15.53
2019-04-21T23:23:15.104Z,11.27
2019-04-21T23:25:39.253Z,9.17
2019-04-21T23:28:08.817Z,11.93
2019-04-21T23:30:43.598Z,9.33
2019-04-21T23:32:52.637Z,9.70
2019-04-21T23:35:25.804Z,11.70
2019-04-21T23:37:50.324Z,7.93
2019-04-21T23:40:17.497Z,11.77
2019-04-21T23:42:43.308Z,10.07
2019-04-21T23:45:08.792Z,8.50
2019-04-21T23:47:48.132Z,8.93
2019-04-21T23:50:19.962Z,10.30
2019-04-21T23:52:37.488Z,9.63
2019-04-21T23:55:07.343Z,8.93
2019-04-21T23:57:39.701Z,9.10
